createdAt,value
2018-04-16T00:02:00.933Z,69.70
2018-04-16T00:04:28.504Z,69.90
2018-04-16T00:06:56.112Z,70.00
2018-04-16T00:09:23.521Z,70.10
2018-04-16T00:11:50.985Z,70.00
2018-04-16T00:14:18.448Z,70.00
2018-04-16T00:16:46.712Z,69.90
2018-04-16T00:19:14.173Z,69.90
2018-04-16T00:21:41.725Z,70.10
2018-04-16T00:24:09.185Z,70.30
2018-04-16T00:26:36.663Z,70.20
2018-04-16T00:29:04.890Z,70.30
2018-04-16T00:31:37.989Z,70.20
2018-04-16T00:34:11.149Z,70.30
2018-04-16T00:36:44.277Z,70.20
2018-04-16T00:39:17.412Z,71.00
2018-04-16T00:41:51.229Z,70.60
2018-04-16T00:44:25.369Z,70.60
2018-04-16T00:46:58.609Z,70.40
2018-04-16T00:49:31.753Z,70.80
2018-04-16T00:52:05.034Z,71.00
2018-04-16T00:54:38.665Z,71.90
2018-04-16T00:57:11.973Z,72.20
2018-04-16T00:59:45.121Z,72.70
2018-04-16T01:02:18.185Z,73.10
2018-04-16T01:04:52.160Z,74.10
2018-04-16T01:07:25.277Z,74.10
2018-04-16T01:09:58.413Z,74.40
2018-04-16T01:12:43.561Z,75.50
2018-04-16T01:15:16.621Z,75.10
2018-04-16T01:17:49.869Z,75.40
2018-04-16T01:20:22.976Z,75.60
2018-04-16T01:22:56.192Z,75.80
2018-04-16T01:25:29.353Z,76.10
2018-04-16T01:28:02.545Z,76.40
2018-04-16T01:30:36.219Z,76.60
2018-04-16T01:33:10.641Z,76.70
2018-04-16T01:35:43.733Z,76.60
2018-04-16T01:38:16.848Z,76.80
2018-04-16T01:40:50.012Z,76.90
2018-04-16T01:43:24.110Z,77.20
2018-04-16T01:45:58.301Z,77.70
2018-04-16T01:48:31.566Z,77.60
2018-04-16T01:51:04.757Z,77.80
2018-04-16T01:53:53.461Z,77.50
2018-04-16T01:56:27.444Z,77.90
2018-04-16T01:59:00.738Z,77.50
2018-04-16T02:01:33.945Z,77.50
2018-04-16T02:04:07.097Z,77.60
2018-04-16T02:06:40.310Z,77.70
2018-04-16T02:09:13.573Z,77.50
2018-04-16T02:11:47.398Z,77.60
2018-04-16T02:14:20.662Z,77.50
2018-04-16T02:16:53.705Z,77.50
2018-04-16T02:19:26.993Z,77.40
2018-04-16T02:22:00.785Z,77.50
2018-04-16T02:24:33.909Z,77.40
2018-04-16T02:27:07.121Z,77.40
2018-04-16T02:29:41.138Z,77.60
2018-04-16T02:32:15.100Z,77.40
2018-04-16T02:34:48.389Z,77.40
2018-04-16T02:37:21.617Z,77.40
2018-04-16T02:39:54.887Z,77.60
2018-04-16T02:42:28.796Z,77.70
2018-04-16T02:45:02.089Z,77.80
2018-04-16T02:47:35.354Z,77.90
2018-04-16T02:50:08.489Z,78.00
2018-04-16T02:52:51.774Z,78.10
2018-04-16T02:55:24.971Z,78.30
2018-04-16T02:57:58.149Z,78.30
2018-04-16T03:00:31.360Z,78.40
2018-04-16T03:03:19.401Z,78.50
2018-04-16T03:05:52.590Z,78.60
2018-04-16T03:08:25.913Z,78.70
2018-04-16T03:10:58.989Z,78.80
2018-04-16T03:13:32.501Z,78.60
2018-04-16T03:16:05.794Z,78.70
2018-04-16T03:18:39.076Z,79.10
2018-04-16T03:21:12.296Z,79.30
2018-04-16T03:23:46.197Z,79.40
2018-04-16T03:26:19.476Z,79.50
2018-04-16T03:28:52.573Z,79.50
2018-04-16T03:31:25.765Z,79.70
2018-04-16T03:33:59.681Z,79.90
2018-04-16T03:36:32.985Z,79.90
2018-04-16T03:39:06.265Z,79.90
2018-04-16T03:41:39.453Z,79.70
2018-04-16T03:44:13.280Z,79.60
2018-04-16T03:46:46.492Z,79.50
2018-04-16T03:49:19.686Z,79.60
2018-04-16T03:51:52.948Z,80.40
2018-04-16T03:54:20.957Z,79.80
2018-04-16T03:56:49.179Z,79.10
2018-04-16T03:59:16.655Z,79.40
2018-04-16T04:01:44.135Z,79.40
2018-04-16T04:04:11.689Z,79.50
2018-04-16T04:06:39.249Z,79.70
2018-04-16T04:09:06.744Z,79.90
2018-04-16T04:11:34.193Z,80.50
2018-04-16T04:14:02.438Z,79.70
2018-04-16T04:16:29.901Z,79.70
2018-04-16T04:18:57.377Z,79.70
2018-04-16T04:21:25.637Z,79.80
2018-04-16T04:24:05.093Z,79.50
2018-04-16T04:26:44.517Z,79.70
2018-04-16T04:29:23.844Z,79.60
2018-04-16T04:31:51.304Z,79.50
2018-04-16T04:34:18.869Z,79.50
2018-04-16T04:36:46.324Z,79.40
2018-04-16T04:39:13.791Z,79.40
2018-04-16T04:41:41.248Z,79.40
2018-04-16T04:44:08.708Z,79.20
2018-04-16T04:46:36.265Z,79.10
2018-04-16T04:49:04.540Z,79.60
2018-04-16T04:51:32.005Z,79.60
2018-04-16T04:53:59.548Z,79.90
2018-04-16T04:56:27.012Z,80.20
2018-04-16T04:58:54.493Z,80.30
2018-04-16T05:01:22.724Z,80.70
2018-04-16T05:03:50.185Z,80.60
2018-04-16T05:06:17.645Z,80.90
2018-04-16T05:08:45.105Z,81.40
2018-04-16T05:11:12.573Z,81.40
2018-04-16T05:13:40.037Z,81.60
2018-04-16T05:16:07.493Z,81.90
2018-04-16T05:18:34.953Z,82.10
2018-04-16T05:21:02.508Z,82.10
2018-04-16T05:23:29.968Z,82.50
2018-04-16T05:25:57.528Z,82.60
2018-04-16T05:28:25.000Z,82.60
2018-04-16T05:30:52.484Z,82.70
2018-04-16T05:33:20.717Z,82.30
2018-04-16T05:35:48.286Z,82.30
2018-04-16T05:38:15.752Z,82.20
2018-04-16T05:40:43.308Z,82.60
2018-04-16T05:43:10.780Z,82.50
2018-04-16T05:45:38.233Z,82.50
2018-04-16T05:48:05.772Z,82.50
2018-04-16T05:50:33.240Z,82.70
2018-04-16T05:53:00.797Z,82.40
2018-04-16T05:55:28.360Z,82.50
2018-04-16T05:57:55.824Z,82.40
2018-04-16T06:00:23.383Z,82.20
2018-04-16T06:02:50.836Z,82.40
2018-04-16T06:05:18.397Z,82.10
2018-04-16T06:07:45.865Z,82.00
2018-04-16T06:10:13.328Z,81.90
2018-04-16T06:12:41.577Z,81.90
2018-04-16T06:15:09.033Z,81.90
2018-04-16T06:17:36.497Z,81.60
2018-04-16T06:20:03.961Z,81.70
2018-04-16T06:22:32.253Z,81.70
2018-04-16T06:24:59.708Z,81.70
2018-04-16T06:27:27.304Z,81.90
2018-04-16T06:29:54.728Z,81.60
2018-04-16T06:32:22.189Z,81.40
2018-04-16T06:34:49.736Z,81.00
2018-04-16T06:37:17.294Z,81.10
2018-04-16T06:39:44.768Z,80.80
2018-04-16T06:42:12.236Z,80.90
2018-04-16T06:44:40.476Z,81.10
2018-04-16T06:47:07.946Z,81.20
2018-04-16T06:49:35.414Z,80.80
2018-04-16T06:52:02.969Z,80.60
2018-04-16T06:54:30.428Z,80.50
2018-04-16T06:56:57.896Z,80.40
2018-04-16T06:59:25.463Z,80.10
2018-04-16T07:01:53.764Z,80.40
2018-04-16T07:04:21.204Z,79.50
2018-04-16T07:06:49.462Z,78.90
2018-04-16T07:09:16.967Z,78.90
2018-04-16T07:11:44.481Z,78.60
2018-04-16T07:14:12.089Z,78.60
2018-04-16T07:16:39.554Z,78.70
2018-04-16T07:19:07.017Z,78.90
2018-04-16T07:21:34.500Z,78.70
2018-04-16T07:24:01.975Z,78.90
2018-04-16T07:26:29.522Z,78.90
2018-04-16T07:28:56.997Z,77.80
2018-04-16T07:31:24.466Z,78.00
2018-04-16T07:33:52.720Z,78.20
2018-04-16T07:36:20.278Z,78.20
2018-04-16T07:38:47.837Z,78.50
2018-04-16T07:41:15.456Z,78.50
2018-04-16T07:43:43.003Z,79.00
2018-04-16T07:46:10.430Z,78.50
2018-04-16T07:48:37.977Z,78.60
2018-04-16T07:51:05.452Z,78.30
2018-04-16T07:53:33.697Z,78.80
2018-04-16T07:56:01.168Z,77.90
2018-04-16T07:58:28.737Z,78.30
2018-04-16T08:00:56.197Z,77.80
2018-04-16T08:03:23.673Z,77.30
2018-04-16T08:05:51.933Z,75.80
2018-04-16T08:08:19.400Z,75.80
2018-04-16T08:10:47.651Z,76.00
2018-04-16T08:13:15.116Z,75.90
2018-04-16T08:15:42.593Z,75.60
2018-04-16T08:18:10.915Z,76.50
2018-04-16T08:20:38.376Z,75.70
2018-04-16T08:23:05.838Z,76.00
2018-04-16T08:25:33.328Z,76.20
2018-04-16T08:28:00.797Z,76.60
2018-04-16T08:30:28.344Z,76.40
2018-04-16T08:32:55.910Z,76.20
2018-04-16T08:35:24.133Z,77.20
2018-04-16T08:37:51.646Z,77.20
2018-04-16T08:40:19.109Z,76.90
2018-04-16T08:42:47.372Z,77.50
2018-04-16T08:45:14.941Z,77.50
2018-04-16T08:47:42.404Z,77.60
2018-04-16T08:50:09.873Z,77.60
2018-04-16T08:52:38.165Z,78.00
2018-04-16T08:55:05.592Z,77.20
2018-04-16T08:57:33.149Z,75.80
2018-04-16T09:00:00.613Z,73.70
2018-04-16T09:02:28.076Z,73.90
2018-04-16T09:04:55.548Z,73.50
2018-04-16T09:07:23.801Z,74.10
2018-04-16T09:09:51.281Z,74.10
2018-04-16T09:12:19.517Z,74.80
2018-04-16T09:14:46.980Z,74.00
2018-04-16T09:17:14.553Z,75.20
2018-04-16T09:19:42.173Z,74.60
2018-04-16T09:22:09.676Z,75.50
2018-04-16T09:24:37.240Z,76.10
2018-04-16T09:27:04.793Z,75.90
2018-04-16T09:29:32.261Z,76.40
2018-04-16T09:31:59.814Z,76.20
2018-04-16T09:34:27.280Z,76.60
2018-04-16T09:36:54.837Z,76.80
2018-04-16T09:39:22.301Z,76.70
2018-04-16T09:41:49.765Z,77.50
2018-04-16T09:44:17.267Z,78.30
2018-04-16T09:46:44.729Z,78.40
2018-04-16T09:49:12.284Z,78.60
2018-04-16T09:51:39.744Z,79.20
2018-04-16T09:54:07.302Z,79.10
2018-04-16T09:56:34.805Z,78.40
2018-04-16T09:59:02.366Z,78.30
2018-04-16T10:01:29.841Z,78.00
2018-04-16T10:03:58.073Z,78.20
2018-04-16T10:06:25.536Z,78.20
2018-04-16T10:08:53.002Z,77.60
2018-04-16T10:11:20.481Z,77.30
2018-04-16T10:13:48.033Z,77.60
2018-04-16T10:16:15.509Z,77.50
2018-04-16T10:18:43.737Z,77.20
2018-04-16T10:21:11.224Z,76.60
2018-04-16T10:23:38.788Z,77.20
2018-04-16T10:26:06.341Z,77.00
2018-04-16T10:28:33.808Z,76.00
2018-04-16T10:31:01.274Z,75.70
2018-04-16T10:33:29.504Z,75.80
2018-04-16T10:35:57.000Z,75.80
2018-04-16T10:38:24.562Z,75.90
2018-04-16T10:40:52.796Z,76.20
2018-04-16T10:43:20.293Z,76.20
2018-04-16T10:45:47.773Z,75.90
2018-04-16T10:48:16.021Z,75.60
2018-04-16T10:50:43.589Z,75.40
2018-04-16T10:53:11.070Z,76.00
2018-04-16T10:55:39.339Z,75.10
2018-04-16T10:58:06.809Z,75.00
2018-04-16T11:00:35.063Z,72.00
2018-04-16T11:03:02.542Z,71.90
2018-04-16T11:05:30.777Z,72.90
2018-04-16T11:07:58.240Z,72.80
2018-04-16T11:10:25.805Z,72.40
2018-04-16T11:12:53.370Z,71.90
2018-04-16T11:15:20.829Z,70.70
2018-04-16T11:17:48.393Z,71.40
2018-04-16T11:20:15.944Z,70.50
2018-04-16T11:22:43.409Z,70.10
2018-04-16T11:25:10.965Z,70.50
2018-04-16T11:27:38.441Z,69.60
2018-04-16T11:30:05.943Z,68.20
2018-04-16T11:32:33.404Z,67.30
2018-04-16T11:35:00.868Z,65.50
2018-04-16T11:37:28.353Z,66.00
2018-04-16T11:39:55.822Z,65.50
2018-04-16T11:42:23.335Z,65.30
2018-04-16T11:44:50.840Z,65.10
2018-04-16T11:47:18.397Z,65.80
2018-04-16T11:49:45.857Z,67.40
2018-04-16T11:52:13.475Z,67.50
2018-04-16T11:54:40.925Z,68.80
2018-04-16T11:57:08.385Z,70.60
2018-04-16T11:59:35.893Z,71.80
2018-04-16T12:02:03.452Z,73.10
2018-04-16T12:04:30.961Z,74.70
2018-04-16T12:06:59.189Z,75.80
2018-04-16T12:09:26.759Z,75.80
2018-04-16T12:11:54.308Z,75.50
2018-04-16T12:14:21.880Z,76.00
2018-04-16T12:16:49.433Z,75.20
2018-04-16T12:19:16.909Z,75.00
2018-04-16T12:21:44.448Z,75.00
2018-04-16T12:24:11.913Z,75.80
2018-04-16T12:26:39.465Z,76.00
2018-04-16T12:29:06.947Z,76.10
2018-04-16T12:31:34.402Z,77.60
2018-04-16T12:34:01.868Z,78.30
2018-04-16T12:36:30.099Z,77.60
2018-04-16T12:38:57.605Z,77.50
2018-04-16T12:41:25.864Z,77.20
2018-04-16T12:43:53.321Z,77.10
2018-04-16T12:46:20.796Z,77.50
2018-04-16T12:48:49.041Z,77.00
2018-04-16T12:51:16.502Z,77.00
2018-04-16T12:53:43.980Z,77.20
2018-04-16T12:56:12.243Z,77.50
2018-04-16T12:58:39.797Z,77.30
2018-04-16T13:01:07.266Z,78.60
2018-04-16T13:03:34.824Z,79.10
2018-04-16T13:06:03.057Z,81.10
2018-04-16T13:08:30.520Z,80.30
2018-04-16T13:10:58.009Z,80.00
2018-04-16T13:13:25.477Z,80.70
2018-04-16T13:15:53.717Z,80.90
2018-04-16T13:18:21.181Z,80.80
2018-04-16T13:20:48.721Z,81.10
2018-04-16T13:23:16.181Z,81.30
2018-04-16T13:25:43.680Z,81.60
2018-04-16T13:28:11.165Z,81.60
2018-04-16T13:30:39.400Z,82.40
2018-04-16T13:33:06.876Z,82.40
2018-04-16T13:35:34.433Z,82.70
2018-04-16T13:38:01.994Z,82.60
2018-04-16T13:40:29.553Z,82.50
2018-04-16T13:42:57.148Z,82.80
2018-04-16T13:45:24.679Z,82.80
2018-04-16T13:47:52.232Z,83.20
2018-04-16T13:50:19.701Z,83.20
2018-04-16T13:52:47.209Z,82.20
2018-04-16T13:55:14.709Z,81.50
2018-04-16T13:57:42.180Z,81.20
2018-04-16T14:00:09.649Z,81.00
2018-04-16T14:02:37.888Z,80.10
2018-04-16T14:05:05.464Z,80.00
2018-04-16T14:07:33.029Z,80.40
2018-04-16T14:10:00.494Z,79.20
2018-04-16T14:12:27.964Z,78.90
2018-04-16T14:14:56.201Z,78.00
2018-04-16T14:17:23.678Z,77.90
2018-04-16T14:19:51.905Z,78.10
2018-04-16T14:22:19.373Z,78.10
2018-04-16T14:24:46.870Z,78.10
2018-04-16T14:27:14.418Z,78.50
2018-04-16T14:29:41.886Z,78.30
2018-04-16T14:32:09.340Z,77.70
2018-04-16T14:34:36.904Z,78.30
2018-04-16T14:37:04.365Z,78.40
2018-04-16T14:39:32.643Z,77.00
2018-04-16T14:42:00.105Z,77.10
2018-04-16T14:44:27.564Z,76.90
2018-04-16T14:46:55.034Z,76.90
2018-04-16T14:49:23.294Z,77.00
2018-04-16T14:51:50.752Z,77.00
2018-04-16T14:54:18.213Z,77.20
2018-04-16T14:56:45.786Z,76.80
2018-04-16T14:59:13.238Z,76.60
2018-04-16T15:01:40.692Z,76.20
2018-04-16T15:04:08.157Z,76.80
2018-04-16T15:06:35.620Z,76.90
2018-04-16T15:09:03.849Z,77.50
2018-04-16T15:11:31.328Z,77.50
2018-04-16T15:13:58.955Z,78.30
2018-04-16T15:16:26.414Z,78.60
2018-04-16T15:18:53.886Z,79.40
2018-04-16T15:21:21.362Z,79.40
2018-04-16T15:23:48.821Z,79.50
2018-04-16T15:26:16.285Z,79.20
2018-04-16T15:28:43.848Z,79.30
2018-04-16T15:31:11.327Z,79.70
2018-04-16T15:33:39.564Z,79.80
2018-04-16T15:36:07.031Z,79.80
2018-04-16T15:38:34.601Z,79.80
2018-04-16T15:41:02.173Z,79.80
2018-04-16T15:43:29.621Z,79.80
2018-04-16T15:45:57.093Z,80.10
2018-04-16T15:48:25.357Z,80.70
2018-04-16T15:50:52.797Z,80.40
2018-04-16T15:53:20.364Z,79.00
2018-04-16T15:55:47.933Z,80.30
2018-04-16T15:58:15.416Z,80.20
2018-04-16T16:00:43.683Z,80.20
2018-04-16T16:03:11.229Z,80.00
2018-04-16T16:05:38.794Z,80.20
2018-04-16T16:08:07.056Z,80.10
2018-04-16T16:10:34.624Z,80.10
2018-04-16T16:13:02.097Z,79.70
2018-04-16T16:15:29.653Z,79.00
2018-04-16T16:17:57.203Z,78.80
2018-04-16T16:20:24.766Z,79.00
2018-04-16T16:22:52.221Z,79.20
2018-04-16T16:25:19.697Z,79.30
2018-04-16T16:27:47.153Z,79.30
2018-04-16T16:30:14.626Z,79.40
2018-04-16T16:32:42.856Z,80.70
2018-04-16T16:35:10.358Z,80.70
2018-04-16T16:37:38.608Z,81.00
2018-04-16T16:40:06.169Z,81.00
2018-04-16T16:42:33.636Z,81.70
2018-04-16T16:45:01.098Z,81.50
2018-04-16T16:47:29.339Z,81.70
2018-04-16T16:49:56.803Z,81.70
2018-04-16T16:52:24.264Z,81.60
2018-04-16T16:54:51.729Z,81.90
2018-04-16T16:57:19.296Z,82.00
2018-04-16T16:59:46.771Z,82.40
2018-04-16T17:02:14.313Z,82.40
2018-04-16T17:04:41.881Z,82.40
2018-04-16T17:07:09.447Z,82.70
2018-04-16T17:09:37.023Z,83.00
2018-04-16T17:12:05.275Z,83.10
2018-04-16T17:14:32.735Z,82.90
2018-04-16T17:17:00.297Z,83.10
2018-04-16T17:19:27.757Z,83.00
2018-04-16T17:21:55.309Z,83.30
2018-04-16T17:24:22.770Z,83.50
2018-04-16T17:26:50.242Z,83.70
2018-04-16T17:29:17.709Z,83.50
2018-04-16T17:31:45.950Z,83.60
2018-04-16T17:34:13.417Z,83.50
2018-04-16T17:36:41.652Z,84.30
2018-04-16T17:39:09.161Z,83.90
2018-04-16T17:41:36.717Z,84.00
2018-04-16T17:44:04.277Z,83.90
2018-04-16T17:46:31.853Z,83.80
2018-04-16T17:48:59.324Z,84.00
2018-04-16T17:51:27.544Z,84.60
2018-04-16T17:53:55.008Z,84.50
2018-04-16T17:56:22.546Z,84.70
2018-04-16T17:58:50.001Z,84.80
2018-04-16T18:01:17.564Z,85.00
2018-04-16T18:03:45.026Z,85.20
2018-04-16T18:06:12.505Z,85.50
2018-04-16T18:08:40.010Z,85.50
2018-04-16T18:11:08.250Z,85.70
2018-04-16T18:13:36.657Z,85.50
2018-04-16T18:16:04.121Z,85.70
2018-04-16T18:18:32.360Z,85.70
2018-04-16T18:20:59.936Z,85.60
2018-04-16T18:23:27.554Z,85.60
2018-04-16T18:25:55.017Z,85.70
2018-04-16T18:28:22.571Z,85.70
2018-04-16T18:30:50.077Z,85.70
2018-04-16T18:33:17.589Z,85.70
2018-04-16T18:35:45.053Z,85.80
2018-04-16T18:38:12.553Z,85.90
2018-04-16T18:40:40.791Z,85.90
2018-04-16T18:43:08.254Z,86.00
2018-04-16T18:45:35.722Z,86.30
2018-04-16T18:48:03.245Z,85.80
2018-04-16T18:50:31.466Z,85.50
2018-04-16T18:52:58.930Z,85.50
2018-04-16T18:55:26.395Z,85.20
2018-04-16T18:57:54.674Z,85.10
2018-04-16T19:00:22.233Z,85.10
2018-04-16T19:02:49.689Z,85.30
2018-04-16T19:05:17.179Z,85.00
2018-04-16T19:07:45.416Z,85.30
2018-04-16T19:10:12.869Z,84.50
2018-04-16T19:12:40.374Z,84.50
2018-04-16T19:15:07.961Z,84.60
2018-04-16T19:20:35.130Z,84.20
2018-04-16T19:23:02.644Z,84.10
2018-04-16T19:25:30.166Z,84.30
2018-04-16T19:28:03.265Z,84.50
2018-04-16T19:30:30.745Z,84.80
2018-04-16T19:33:03.889Z,84.70
2018-04-16T19:35:31.367Z,84.50
2018-04-16T19:37:59.234Z,84.60
2018-04-16T19:40:26.717Z,84.70
2018-04-16T19:42:54.181Z,84.80
2018-04-16T19:45:21.644Z,84.70
2018-04-16T19:47:49.115Z,84.30
2018-04-16T19:50:16.598Z,84.20
2018-04-16T19:52:44.094Z,84.40
2018-04-16T19:55:11.586Z,84.70
2018-04-16T19:57:45.514Z,85.10
2018-04-16T20:00:13.749Z,84.90
2018-04-16T20:02:47.009Z,84.90
2018-04-16T20:05:14.478Z,84.60
2018-04-16T20:07:42.177Z,84.90
2018-04-16T20:10:09.673Z,85.30
2018-04-16T20:12:37.185Z,85.70
2018-04-16T20:15:04.657Z,85.90
2018-04-16T20:17:32.209Z,85.90
2018-04-16T20:19:59.765Z,85.80
2018-04-16T20:22:27.238Z,86.10
2018-04-16T20:24:54.698Z,86.20
2018-04-16T20:27:22.252Z,86.10
2018-04-16T20:29:49.712Z,86.50
2018-04-16T20:32:17.172Z,86.70
2018-04-16T20:34:44.640Z,86.70
2018-04-16T20:37:12.877Z,86.80
2018-04-16T20:39:40.340Z,86.70
2018-04-16T20:42:07.918Z,86.80
2018-04-16T20:44:35.381Z,86.80
2018-04-16T20:47:02.991Z,86.70
2018-04-16T20:49:31.317Z,87.00
2018-04-16T20:51:58.791Z,87.10
2018-04-16T20:54:27.033Z,87.50
2018-04-16T20:56:54.529Z,86.80
2018-04-16T20:59:22.757Z,86.90
2018-04-16T21:01:50.222Z,86.80
2018-04-16T21:04:17.700Z,86.90
2018-04-16T21:06:45.346Z,86.90
2018-04-16T21:09:12.905Z,87.10
2018-04-16T21:11:40.450Z,87.10
2018-04-16T21:14:07.999Z,87.00
2018-04-16T21:16:35.545Z,87.00
2018-04-16T21:19:03.137Z,87.00
2018-04-16T21:21:30.681Z,86.70
2018-04-16T21:23:58.262Z,86.60
2018-04-16T21:26:25.906Z,86.60
2018-04-16T21:28:53.505Z,86.70
2018-04-16T21:31:21.049Z,86.70
2018-04-16T21:33:48.597Z,86.70
2018-04-16T21:36:16.169Z,86.70
2018-04-16T21:38:43.726Z,87.10
2018-04-16T21:41:11.481Z,87.00
2018-04-16T21:43:39.054Z,87.00
2018-04-16T21:46:06.602Z,87.20
2018-04-16T21:48:34.147Z,87.00
2018-04-16T21:51:01.695Z,87.20
2018-04-16T21:53:29.242Z,87.20
2018-04-16T21:55:57.557Z,87.00
2018-04-16T21:58:25.112Z,87.00
2018-04-16T22:00:52.668Z,87.10
2018-04-16T22:03:20.218Z,87.20
2018-04-16T22:05:47.761Z,87.10
2018-04-16T22:08:16.070Z,87.30
2018-04-16T22:10:43.629Z,87.30
2018-04-16T22:13:12.133Z,87.20
2018-04-16T22:15:39.699Z,87.10
2018-04-16T22:18:07.269Z,87.20
2018-04-16T22:20:34.838Z,87.30
2018-04-16T22:23:02.393Z,87.30
2018-04-16T22:25:29.937Z,87.40
2018-04-16T22:27:57.487Z,87.20
2018-04-16T22:30:25.037Z,87.10
2018-04-16T22:32:52.581Z,87.20
2018-04-16T22:35:20.121Z,87.20
2018-04-16T22:37:48.427Z,87.30
2018-04-16T22:40:15.974Z,87.30
2018-04-16T22:42:43.527Z,87.40
2018-04-16T22:45:11.838Z,87.40
2018-04-16T22:47:39.427Z,88.00
2018-04-16T22:50:06.975Z,87.30
2018-04-16T22:52:34.521Z,87.40
2018-04-16T22:55:02.070Z,87.30
2018-04-16T22:57:29.531Z,87.40
2018-04-16T22:59:56.996Z,87.40
2018-04-16T23:02:24.543Z,87.50
2018-04-16T23:04:52.049Z,87.50
2018-04-16T23:07:19.529Z,87.50
2018-04-16T23:09:47.760Z,87.60
2018-04-16T23:12:15.225Z,87.50
2018-04-16T23:14:42.703Z,87.50
2018-04-16T23:17:10.256Z,87.60
2018-04-16T23:19:37.739Z,87.50
2018-04-16T23:22:05.980Z,87.70
2018-04-16T23:24:33.554Z,87.20
2018-04-16T23:27:01.128Z,87.30
2018-04-16T23:29:28.677Z,87.50
2018-04-16T23:31:56.149Z,87.60
2018-04-16T23:34:24.393Z,86.90
2018-04-16T23:36:51.848Z,87.50
2018-04-16T23:39:19.317Z,87.40
2018-04-16T23:41:46.881Z,87.60
2018-04-16T23:44:14.347Z,87.60
2018-04-16T23:46:41.913Z,87.70
2018-04-16T23:49:09.469Z,87.50
2018-04-16T23:51:37.708Z,87.60
2018-04-16T23:54:05.192Z,87.60
2018-04-16T23:56:32.649Z,87.70
2018-04-16T23:59:00.125Z,87.60
